• Join FlightAware (Why Join?)
  • Login
  • US Flag 
05:35AM EDT


 

Airport Tracker/Info


-or-


 

Live Flight TrackerFlight Track Log ✈ DAL6351 ✈ 11-Apr-2014 ✈ KCVG - KMCI

Flight Track Log - Related Links

Times and Time Zones

All times are in EDT time to prevent confusion due to time zone crossing. See the DAL6351 flight status page for this flight to view local times or setup timezone preferences in your user account.

Time Position Orientation Groundspeed Altitude Reporting Facility
EDT Latitude Longitude Course Direction KTS MPH feet Rate Location/Type
08:42PM 39.0500 -84.6833 286° West 159 183 1,500  Level Cincinnati TRACON
08:43PM 39.0500 -84.7333 271° West 175 201 3,300 1,860 Climbing Cincinnati TRACON
08:44PM 39.0500 -84.8167 270° West 230 265 5,100 1,920 Climbing Cincinnati TRACON
08:45PM 39.0667 -84.9000 284° West 250 288 7,400 2,220 Climbing Cincinnati TRACON
08:46PM 39.1395 -85.0974 285° West  Level FlightAware Approximate
08:46PM 39.0847 -84.9569 292° West 246 283 8,800  Level Indianapolis Center
08:47PM 39.1643 -85.2069 288° West  Level FlightAware Approximate
08:47PM 39.1097 -85.0411 291° West 251 289 11,600  Level Indianapolis Center
08:48PM 39.0631 -84.7335 286° West  Level FlightAware Approximate
08:48PM 39.1325 -85.1233 290° West 248 285 13,300  Level Indianapolis Center
08:49PM 39.1592 -85.2125 291° West 261 300 14,600 1,200 Climbing Indianapolis Center
08:50PM 39.1864 -85.3119 289° West 288 331 15,800 1,140 Climbing Indianapolis Center
08:51PM 39.2089 -85.4189 285° West 303 349 17,000 1,080 Climbing Indianapolis Center
08:52PM 39.2267 -85.5311 282° West 314 361 18,100 1,260 Climbing Indianapolis Center
08:53PM 39.2492 -85.6681 282° West 322 371 19,600 1,260 Climbing Indianapolis Center
08:54PM 39.2689 -85.7839 282° West 328 377 20,800 1,140 Climbing Indianapolis Center
08:55PM 39.2881 -85.8997 282° West 328 377 22,000 1,140 Climbing Indianapolis Center
08:56PM 39.3078 -86.0164 282° West 329 379 23,200 1,140 Climbing Indianapolis Center
08:57PM 39.3264 -86.1325 282° West 329 379 24,400 1,140 Climbing Indianapolis Center
08:58PM 39.3458 -86.2492 282° West 329 379 25,600 1,140 Climbing Indianapolis Center
08:59PM 39.3639 -86.3647 281° West 329 379 26,800 1,020 Climbing Indianapolis Center
09:00PM 39.3828 -86.4800 282° West 329 379 27,800 960 Climbing Indianapolis Center
09:01PM 39.4011 -86.5939 282° West 328 377 28,800 960 Climbing Indianapolis Center
09:02PM 39.4189 -86.7086 281° West 328 377 29,800 1,020 Climbing Indianapolis Center
09:03PM 39.4403 -86.8453 281° West 327 376 31,000 1,020 Climbing Indianapolis Center
09:04PM 39.4589 -86.9611 282° West 327 376 32,000 960 Climbing Indianapolis Center
09:05PM 39.4767 -87.0775 281° West 327 376 33,000 900 Climbing Indianapolis Center
09:06PM 39.4944 -87.1939 281° West 328 377 33,900 480 Climbing Indianapolis Center
09:07PM 39.5133 -87.3142 282° West 334 384 34,000  Climbing Indianapolis Center
09:08PM 39.5336 -87.4414 282° West 353 406 34,000  Level Indianapolis Center
09:09PM 39.5531 -87.5750 281° West 371 427 34,000  Level Indianapolis Center
09:10PM 39.5728 -87.7111 281° West 380 437 34,000  Level Indianapolis Center
09:11PM 39.5928 -87.8444 281° West 380 437 34,000  Level Indianapolis Center
09:12PM 39.6169 -88.0061 281° West 380 437 34,000  Level Indianapolis Center
09:14PM 39.6356 -88.1397 280° West 380 437 34,000  Level Indianapolis Center
09:15PM 39.6550 -88.2725 281° West 379 436 34,000  Level Indianapolis Center
09:16PM 39.6739 -88.4036 281° West 375 432 34,000  Level Indianapolis Center
09:17PM 39.6917 -88.5342 280° West 372 428 34,000  Level Indianapolis Center
09:18PM 39.7103 -88.6622 281° West 369 425 34,000  Level Indianapolis Center
09:19PM 39.7269 -88.7928 279° West 368 423 34,000  Level Indianapolis Center
09:20PM 39.7458 -88.9211 281° West 367 422 34,000  Level Indianapolis Center
09:21PM 39.7667 -89.0772 280° West 367 422 34,000  Level Indianapolis Center
09:22PM 39.7828 -89.2069 279° West 366 421 34,000  Level Indianapolis Center
09:23PM 39.7986 -89.3453 279° West 366 421 34,000  Level Indianapolis Center
09:24PM 39.8142 -89.4647 280° West 365 420 34,000  Level Indianapolis Center
09:25PM 39.8294 -89.5931 279° West 363 418 34,000  Level Indianapolis Center
09:26PM 39.8408 -89.7850 274° West 378 435 34,000  Level Kansas City Center
09:27PM 39.8433 -89.9208 271° West 378 435 34,000  Level Kansas City Center
09:28PM 39.8447 -90.0867 271° West 378 435 34,000  Level Kansas City Center
09:29PM 39.8453 -90.2231 270° West 378 435 34,000  Level Kansas City Center
09:30PM 39.8461 -90.3611 270° West 378 435 34,000  Level Kansas City Center
09:31PM 39.8467 -90.4983 270° West 379 436 34,000  Level Kansas City Center
09:32PM 39.8475 -90.6339 271° West 378 435 34,000  Level Kansas City Center
09:33PM 39.8481 -90.7725 270° West 378 435 34,000  Level Kansas City Center
09:34PM 39.8483 -90.9100 270° West 379 436 34,000  Level Kansas City Center
09:35PM 39.8483 -91.0694 270° West 379 436 34,000  Level Kansas City Center
09:37PM 39.8486 -91.2047 270° West 378 435 34,000  Level Kansas City Center
09:38PM 39.8447 -91.3403 268° West 379 436 34,000  Level Kansas City Center
09:39PM 39.8339 -91.4781 264° West 380 437 34,000  Level Kansas City Center
09:40PM 39.8242 -91.6147 265° West 380 437 34,000  Level Kansas City Center
09:41PM 39.8133 -91.7508 264° West 380 437 34,000  Level Kansas City Center
09:42PM 39.7989 -91.9183 264° West 382 440 34,000  Level Kansas City Center
09:43PM 39.7881 -92.0547 264° West 383 441 34,000 -480 Level Kansas City Center
09:44PM 39.7786 -92.1931 265° West 384 442 33,100 -1,080 Descending Kansas City Center
09:45PM 39.7667 -92.3331 264° West 385 443 31,900 -1,200 Descending Kansas City Center
09:46PM 39.7553 -92.4725 264° West 386 444 30,700 -1,200 Descending Kansas City Center
09:47PM 39.7436 -92.6117 264° West 386 444 29,500 -1,320 Descending Kansas City Center
09:48PM 39.7317 -92.7486 264° West 386 444 28,100 -1,380 Descending Kansas City Center
09:49PM 39.7203 -92.8914 264° West 391 450 26,700 -1,560 Descending Kansas City Center
09:50PM 39.7044 -93.0658 263° West 402 463 25,000 -1,560 Descending Kansas City Center
09:51PM 39.6908 -93.2119 263° West 405 466 23,600 -1,320 Descending Kansas City Center
09:52PM 39.6783 -93.3531 263° West 404 465 22,300 -1,320 Descending Kansas City Center
09:53PM 39.6664 -93.4919 264° West 396 456 20,900 -2,100 Descending Kansas City Center
09:54PM 39.6544 -93.6247 263° West 378 435 18,000 -3,960 Descending Kansas City Center
09:55PM 39.6414 -93.7636 263° West 347 399 12,900 -2,940 Descending Kansas City Center
09:56PM 39.6278 -93.8828 262° West 338 389 12,000 -480 Descending Kansas City Center
09:57PM 39.5903 -94.0078 249° West 342 394 12,000  Level Kansas City Center
09:58PM 39.5539 -94.1286 249° West 354 407 12,000 -600 Level Kansas City Center
09:59PM 39.5217 -94.2369 249° West 321 369 10,800 -1,260 Descending Kansas City Center
10:00PM 39.4914 -94.3361 248° West 276 318 9,500 -1,320 Descending Kansas City Center
10:01PM 39.4661 -94.4192 249° West 254 292 8,100 -1,440 Descending Kansas City Center
10:02PM 39.4408 -94.5008 248° West 249 287 6,600 -1,680 Descending Kansas City Center
10:03PM 39.4169 -94.5789 248° West 238 274 4,800 -1,920 Descending Kansas City Center
10:04PM 39.3931 -94.6639 250° West 237 273 2,700 -1,440 Descending Kansas City Center
10:05PM 39.3511 -94.6892 205° Southwest 165 190 1,900 -780 Descending Kansas City Center
10:06PM 39.3147 -94.6989 192° South 139 160 1,200 -720 Descending Kansas City Center